sensor_id;sensor_type;location;lat;lon;timestamp;pressure;altitude;pressure_sealevel;temperature;humidity
29215;BME280;16252;49.816;7.964;2022-07-23T00:02:17;99938.59;;;26.91;38.96
29215;BME280;16252;49.816;7.964;2022-07-23T00:04:42;99925.97;;;26.90;38.89
29215;BME280;16252;49.816;7.964;2022-07-23T00:07:07;99912.00;;;26.91;38.96
29215;BME280;16252;49.816;7.964;2022-07-23T00:09:33;99881.41;;;26.69;38.68
29215;BME280;16252;49.816;7.964;2022-07-23T00:11:58;99933.22;;;27.02;39.04
29215;BME280;16252;49.816;7.964;2022-07-23T00:14:24;99932.97;;;27.04;38.85
29215;BME280;16252;49.816;7.964;2022-07-23T00:16:49;99905.66;;;26.91;39.05
29215;BME280;16252;49.816;7.964;2022-07-23T00:19:15;99900.78;;;26.93;39.26
29215;BME280;16252;49.816;7.964;2022-07-23T00:21:40;99914.22;;;27.01;38.92
29215;BME280;16252;49.816;7.964;2022-07-23T00:24:06;99938.63;;;27.09;38.89
29215;BME280;16252;49.816;7.964;2022-07-23T00:26:31;99907.22;;;26.87;39.14
29215;BME280;16252;49.816;7.964;2022-07-23T00:28:56;99940.78;;;27.07;38.93
29215;BME280;16252;49.816;7.964;2022-07-23T00:31:22;99939.56;;;27.03;39.23
29215;BME280;16252;49.816;7.964;2022-07-23T00:33:47;99958.09;;;27.08;39.33
29215;BME280;16252;49.816;7.964;2022-07-23T00:36:12;99979.66;;;27.04;39.09
29215;BME280;16252;49.816;7.964;2022-07-23T00:38:37;99955.66;;;26.74;39.50
29215;BME280;16252;49.816;7.964;2022-07-23T00:41:03;99977.63;;;26.74;39.95
29215;BME280;16252;49.816;7.964;2022-07-23T00:43:28;99997.88;;;26.73;40.06
29215;BME280;16252;49.816;7.964;2022-07-23T00:45:53;100024.91;;;26.76;40.41
29215;BME280;16252;49.816;7.964;2022-07-23T00:48:19;100003.47;;;26.60;40.88
29215;BME280;16252;49.816;7.964;2022-07-23T00:50:44;99971.25;;;26.49;41.43
29215;BME280;16252;49.816;7.964;2022-07-23T00:53:10;99967.25;;;26.45;41.62
29215;BME280;16252;49.816;7.964;2022-07-23T00:55:35;99960.22;;;26.55;42.80
29215;BME280;16252;49.816;7.964;2022-07-23T00:58:01;99887.81;;;26.31;42.83
29215;BME280;16252;49.816;7.964;2022-07-23T01:00:28;99899.03;;;26.48;43.13
29215;BME280;16252;49.816;7.964;2022-07-23T01:02:53;99898.03;;;26.43;43.56
29215;BME280;16252;49.816;7.964;2022-07-23T01:05:19;99900.13;;;26.15;43.75
29215;BME280;16252;49.816;7.964;2022-07-23T01:07:48;99941.84;;;26.24;43.67
29215;BME280;16252;49.816;7.964;2022-07-23T01:10:14;99940.19;;;26.23;43.60
29215;BME280;16252;49.816;7.964;2022-07-23T01:13:06;99940.56;;;26.27;44.09
29215;BME280;16252;49.816;7.964;2022-07-23T01:15:32;99952.66;;;26.19;44.12
29215;BME280;16252;49.816;7.964;2022-07-23T01:17:59;99915.22;;;26.00;44.05
29215;BME280;16252;49.816;7.964;2022-07-23T01:20:24;99934.16;;;26.08;44.38
29215;BME280;16252;49.816;7.964;2022-07-23T01:22:51;99927.25;;;25.99;44.37
29215;BME280;16252;49.816;7.964;2022-07-23T01:25:16;99933.38;;;26.01;44.78
29215;BME280;16252;49.816;7.964;2022-07-23T01:27:42;99893.38;;;25.86;44.49
29215;BME280;16252;49.816;7.964;2022-07-23T01:30:08;99851.53;;;25.59;44.63
29215;BME280;16252;49.816;7.964;2022-07-23T01:32:33;99931.94;;;25.91;44.61
29215;BME280;16252;49.816;7.964;2022-07-23T01:34:58;99934.91;;;25.83;44.66
29215;BME280;16252;49.816;7.964;2022-07-23T01:37:24;99940.59;;;25.82;44.76
29215;BME280;16252;49.816;7.964;2022-07-23T01:39:49;99935.56;;;25.79;44.89
29215;BME280;16252;49.816;7.964;2022-07-23T01:42:14;99920.09;;;25.46;45.35
29215;BME280;16252;49.816;7.964;2022-07-23T01:44:39;99914.44;;;25.34;45.39
29215;BME280;16252;49.816;7.964;2022-07-23T01:47:05;99966.41;;;25.61;45.40
29215;BME280;16252;49.816;7.964;2022-07-23T01:49:30;99966.41;;;25.61;45.40
29215;BME280;16252;49.816;7.964;2022-07-23T01:51:55;99950.03;;;25.41;45.65
29215;BME280;16252;49.816;7.964;2022-07-23T01:54:31;99966.16;;;25.62;45.94
29215;BME280;16252;49.816;7.964;2022-07-23T01:56:58;99949.13;;;25.54;46.04
29215;BME280;16252;49.816;7.964;2022-07-23T01:59:24;99915.50;;;25.40;46.16
29215;BME280;16252;49.816;7.964;2022-07-23T02:01:50;99921.13;;;25.51;46.47
29215;BME280;16252;49.816;7.964;2022-07-23T02:04:17;99879.91;;;25.33;46.16
29215;BME280;16252;49.816;7.964;2022-07-23T02:06:42;99893.63;;;25.26;46.42
29215;BME280;16252;49.816;7.964;2022-07-23T02:09:07;99931.28;;;25.38;46.21
29215;BME280;16252;49.816;7.964;2022-07-23T02:11:33;99964.56;;;25.48;46.86
29215;BME280;16252;49.816;7.964;2022-07-23T02:13:58;99950.88;;;25.41;46.08
29215;BME280;16252;49.816;7.964;2022-07-23T02:16:23;99949.41;;;25.39;46.28
29215;BME280;16252;49.816;7.964;2022-07-23T02:18:48;99938.69;;;25.30;46.68
29215;BME280;16252;49.816;7.964;2022-07-23T02:21:14;99962.06;;;25.40;46.68
29215;BME280;16252;49.816;7.964;2022-07-23T02:26:07;99936.16;;;25.29;46.91
29215;BME280;16252;49.816;7.964;2022-07-23T02:28:32;99937.63;;;25.32;46.45
29215;BME280;16252;49.816;7.964;2022-07-23T02:30:57;99940.56;;;25.37;46.61
29215;BME280;16252;49.816;7.964;2022-07-23T02:33:23;99923.09;;;25.31;46.60
29215;BME280;16252;49.816;7.964;2022-07-23T02:35:48;99910.91;;;25.27;46.44
29215;BME280;16252;49.816;7.964;2022-07-23T02:38:13;99929.22;;;25.26;46.48
29215;BME280;16252;49.816;7.964;2022-07-23T02:40:38;99909.84;;;25.21;46.90
29215;BME280;16252;49.816;7.964;2022-07-23T02:43:04;99884.38;;;25.07;46.75
29215;BME280;16252;49.816;7.964;2022-07-23T02:45:29;99880.22;;;24.92;47.33
29215;BME280;16252;49.816;7.964;2022-07-23T02:47:54;99909.66;;;25.16;47.04
29215;BME280;16252;49.816;7.964;2022-07-23T02:50:19;99900.41;;;25.17;47.41
29215;BME280;16252;49.816;7.964;2022-07-23T02:52:45;99916.34;;;25.14;47.79
29215;BME280;16252;49.816;7.964;2022-07-23T02:55:10;99938.25;;;25.14;47.60
29215;BME280;16252;49.816;7.964;2022-07-23T02:57:36;99934.91;;;25.05;47.79
29215;BME280;16252;49.816;7.964;2022-07-23T03:00:02;99950.91;;;25.08;47.58
29215;BME280;16252;49.816;7.964;2022-07-23T03:02:27;99965.66;;;25.00;47.82
29215;BME280;16252;49.816;7.964;2022-07-23T03:04:53;99967.13;;;24.96;47.74
29215;BME280;16252;49.816;7.964;2022-07-23T03:07:18;99984.63;;;25.02;47.90
29215;BME280;16252;49.816;7.964;2022-07-23T03:09:43;99989.66;;;25.05;47.92
29215;BME280;16252;49.816;7.964;2022-07-23T03:12:09;99983.13;;;25.06;48.13
29215;BME280;16252;49.816;7.964;2022-07-23T03:14:34;99970.50;;;24.98;47.88
29215;BME280;16252;49.816;7.964;2022-07-23T03:16:59;99939.16;;;24.81;47.83
29215;BME280;16252;49.816;7.964;2022-07-23T03:19:25;99931.56;;;24.83;47.89
29215;BME280;16252;49.816;7.964;2022-07-23T03:21:51;99925.66;;;24.86;48.10
29215;BME280;16252;49.816;7.964;2022-07-23T03:24:16;99928.63;;;24.91;47.98
29215;BME280;16252;49.816;7.964;2022-07-23T03:26:43;99968.81;;;25.11;47.82
29215;BME280;16252;49.816;7.964;2022-07-23T03:29:08;99947.13;;;24.96;48.50
29215;BME280;16252;49.816;7.964;2022-07-23T03:31:34;99957.47;;;25.07;48.45
29215;BME280;16252;49.816;7.964;2022-07-23T03:33:59;99965.88;;;25.05;48.44
29215;BME280;16252;49.816;7.964;2022-07-23T03:36:25;99969.66;;;25.04;48.40
29215;BME280;16252;49.816;7.964;2022-07-23T03:38:50;99952.84;;;24.94;48.51
29215;BME280;16252;49.816;7.964;2022-07-23T03:41:16;99973.00;;;25.06;48.73
29215;BME280;16252;49.816;7.964;2022-07-23T03:43:41;99951.56;;;24.83;48.52
29215;BME280;16252;49.816;7.964;2022-07-23T03:46:06;99948.22;;;24.75;48.71
29215;BME280;16252;49.816;7.964;2022-07-23T03:48:32;99975.34;;;24.83;48.70
29215;BME280;16252;49.816;7.964;2022-07-23T03:50:57;99996.81;;;24.93;48.86
29215;BME280;16252;49.816;7.964;2022-07-23T03:53:22;99992.41;;;24.85;48.61
29215;BME280;16252;49.816;7.964;2022-07-23T03:55:48;99983.97;;;24.73;48.30
29215;BME280;16252;49.816;7.964;2022-07-23T03:58:13;100001.03;;;24.82;48.79
29215;BME280;16252;49.816;7.964;2022-07-23T04:00:38;100013.69;;;24.90;49.00
29215;BME280;16252;49.816;7.964;2022-07-23T04:03:03;99983.13;;;24.59;49.30
29215;BME280;16252;49.816;7.964;2022-07-23T04:05:29;100013.66;;;24.76;49.07
29215;BME280;16252;49.816;7.964;2022-07-23T04:07:54;100023.97;;;24.81;48.83
29215;BME280;16252;49.816;7.964;2022-07-23T04:10:19;100006.09;;;24.72;48.82
29215;BME280;16252;49.816;7.964;2022-07-23T04:12:45;100024.59;;;24.83;48.58
29215;BME280;16252;49.816;7.964;2022-07-23T04:15:10;100030.91;;;24.83;48.93
29215;BME280;16252;49.816;7.964;2022-07-23T04:17:35;100022.91;;;24.75;49.02
29215;BME280;16252;49.816;7.964;2022-07-23T04:20:01;100053.88;;;24.89;49.42
29215;BME280;16252;49.816;7.964;2022-07-23T04:22:26;100060.19;;;24.90;49.27
29215;BME280;16252;49.816;7.964;2022-07-23T04:24:52;100038.28;;;24.83;49.02
29215;BME280;16252;49.816;7.964;2022-07-23T04:27:17;100041.03;;;24.90;49.65
29215;BME280;16252;49.816;7.964;2022-07-23T04:29:42;100027.97;;;24.85;49.46
29215;BME280;16252;49.816;7.964;2022-07-23T04:32:07;100006.91;;;24.65;49.64
29215;BME280;16252;49.816;7.964;2022-07-23T04:34:33;100033.66;;;24.83;49.60
29215;BME280;16252;49.816;7.964;2022-07-23T04:36:58;100036.84;;;24.87;49.47
29215;BME280;16252;49.816;7.964;2022-07-23T04:39:23;100042.31;;;24.87;49.59
29215;BME280;16252;49.816;7.964;2022-07-23T04:41:48;100031.97;;;24.82;49.57
29215;BME280;16252;49.816;7.964;2022-07-23T04:44:14;100042.94;;;24.82;49.54
29215;BME280;16252;49.816;7.964;2022-07-23T04:46:39;99995.75;;;24.47;49.37
29215;BME280;16252;49.816;7.964;2022-07-23T04:49:05;100053.22;;;24.80;49.49
29215;BME280;16252;49.816;7.964;2022-07-23T04:51:30;100069.88;;;24.85;49.32
29215;BME280;16252;49.816;7.964;2022-07-23T04:53:55;100069.66;;;24.87;49.79
29215;BME280;16252;49.816;7.964;2022-07-23T04:56:21;100067.97;;;24.86;49.37
29215;BME280;16252;49.816;7.964;2022-07-23T04:58:46;100052.81;;;24.77;49.41
29215;BME280;16252;49.816;7.964;2022-07-23T05:01:11;100036.19;;;24.72;49.42
29215;BME280;16252;49.816;7.964;2022-07-23T05:03:37;100055.78;;;24.82;49.52
29215;BME280;16252;49.816;7.964;2022-07-23T05:06:02;100066.91;;;24.80;49.34
29215;BME280;16252;49.816;7.964;2022-07-23T05:08:28;100053.63;;;24.71;49.64
29215;BME280;16252;49.816;7.964;2022-07-23T05:10:53;100022.91;;;24.49;49.72
29215;BME280;16252;49.816;7.964;2022-07-23T05:13:19;100055.72;;;24.69;49.35
29215;BME280;16252;49.816;7.964;2022-07-23T05:15:44;100072.59;;;24.72;49.33
29215;BME280;16252;49.816;7.964;2022-07-23T05:18:10;100071.91;;;24.63;49.51
29215;BME280;16252;49.816;7.964;2022-07-23T05:20:35;100057.38;;;24.50;49.48
29215;BME280;16252;49.816;7.964;2022-07-23T05:23:01;100048.09;;;24.44;49.49
29215;BME280;16252;49.816;7.964;2022-07-23T05:25:26;100082.88;;;24.57;49.46
29215;BME280;16252;49.816;7.964;2022-07-23T05:27:51;100095.94;;;24.61;49.09
29215;BME280;16252;49.816;7.964;2022-07-23T05:30:17;100097.63;;;24.69;49.27
29215;BME280;16252;49.816;7.964;2022-07-23T05:32:42;100094.44;;;24.65;48.99
29215;BME280;16252;49.816;7.964;2022-07-23T05:35:08;100103.94;;;24.70;49.06
29215;BME280;16252;49.816;7.964;2022-07-23T05:37:33;100098.06;;;24.73;49.21
29215;BME280;16252;49.816;7.964;2022-07-23T05:40:07;100112.16;;;24.83;49.05
29215;BME280;16252;49.816;7.964;2022-07-23T05:42:40;100093.22;;;24.75;49.07
29215;BME280;16252;49.816;7.964;2022-07-23T05:45:06;100090.25;;;24.70;48.62
29215;BME280;16252;49.816;7.964;2022-07-23T05:47:45;100078.91;;;24.73;48.52
29215;BME280;16252;49.816;7.964;2022-07-23T05:50:12;100095.53;;;24.78;48.83
29215;BME280;16252;49.816;7.964;2022-07-23T05:52:38;100088.59;;;24.75;48.78
29215;BME280;16252;49.816;7.964;2022-07-23T05:55:04;100055.72;;;24.55;48.80
29215;BME280;16252;49.816;7.964;2022-07-23T05:57:29;100098.94;;;24.86;48.81
29215;BME280;16252;49.816;7.964;2022-07-23T05:59:54;100087.97;;;24.80;49.03
29215;BME280;16252;49.816;7.964;2022-07-23T06:02:20;100037.41;;;24.49;48.85
29215;BME280;16252;49.816;7.964;2022-07-23T06:04:45;100093.03;;;24.90;49.31
29215;BME280;16252;49.816;7.964;2022-07-23T06:07:11;100103.75;;;24.91;48.74
29215;BME280;16252;49.816;7.964;2022-07-23T06:09:36;100084.00;;;24.89;48.73
29215;BME280;16252;49.816;7.964;2022-07-23T06:12:01;100071.13;;;24.96;48.52
29215;BME280;16252;49.816;7.964;2022-07-23T06:14:27;100081.66;;;25.06;48.75
29215;BME280;16252;49.816;7.964;2022-07-23T06:16:52;100085.03;;;25.08;48.65
29215;BME280;16252;49.816;7.964;2022-07-23T06:19:17;100070.50;;;25.01;48.75
29215;BME280;16252;49.816;7.964;2022-07-23T06:21:42;100093.28;;;25.15;48.35
29215;BME280;16252;49.816;7.964;2022-07-23T06:24:08;100085.03;;;25.08;48.64
29215;BME280;16252;49.816;7.964;2022-07-23T06:26:33;100097.03;;;25.14;48.59
29215;BME280;16252;49.816;7.964;2022-07-23T06:28:58;100061.88;;;24.97;48.43
29215;BME280;16252;49.816;7.964;2022-07-23T06:31:23;100092.88;;;25.18;48.55
29215;BME280;16252;49.816;7.964;2022-07-23T06:33:49;100100.03;;;25.25;48.32
29215;BME280;16252;49.816;7.964;2022-07-23T06:36:15;100102.78;;;25.32;48.42
29215;BME280;16252;49.816;7.964;2022-07-23T06:38:40;100078.72;;;25.14;48.40
29215;BME280;16252;49.816;7.964;2022-07-23T06:41:05;100051.78;;;24.98;48.39
29215;BME280;16252;49.816;7.964;2022-07-23T06:43:30;100122.78;;;25.46;48.42
29215;BME280;16252;49.816;7.964;2022-07-23T06:45:56;100119.84;;;25.47;48.29
29215;BME280;16252;49.816;7.964;2022-07-23T06:48:21;100125.28;;;25.54;48.39
29215;BME280;16252;49.816;7.964;2022-07-23T06:50:47;100126.97;;;25.62;48.36
29215;BME280;16252;49.816;7.964;2022-07-23T06:53:13;100127.19;;;25.67;48.29
29215;BME280;16252;49.816;7.964;2022-07-23T06:55:38;100124.44;;;25.67;47.93
29215;BME280;16252;49.816;7.964;2022-07-23T06:58:04;100141.13;;;25.85;47.98
29215;BME280;16252;49.816;7.964;2022-07-23T07:00:29;100133.94;;;25.91;47.90
29215;BME280;16252;49.816;7.964;2022-07-23T07:02:56;100132.84;;;25.99;47.94
29215;BME280;16252;49.816;7.964;2022-07-23T07:05:21;100140.84;;;26.07;47.70
29215;BME280;16252;49.816;7.964;2022-07-23T07:07:48;100117.03;;;25.94;47.77
29215;BME280;16252;49.816;7.964;2022-07-23T07:10:13;100142.50;;;26.14;47.63
29215;BME280;16252;49.816;7.964;2022-07-23T07:12:38;100138.69;;;26.22;47.57
29215;BME280;16252;49.816;7.964;2022-07-23T07:15:04;100141.16;;;26.37;48.09
29215;BME280;16252;49.816;7.964;2022-07-23T07:17:29;100125.72;;;26.43;47.78
29215;BME280;16252;49.816;7.964;2022-07-23T07:19:55;100139.56;;;26.68;47.61
29215;BME280;16252;49.816;7.964;2022-07-23T07:22:20;100145.56;;;26.90;47.33
29215;BME280;16252;49.816;7.964;2022-07-23T07:24:45;100153.50;;;27.05;46.84
29215;BME280;16252;49.816;7.964;2022-07-23T07:27:11;100144.75;;;27.14;46.73
29215;BME280;16252;49.816;7.964;2022-07-23T07:29:36;100159.78;;;27.43;46.72
29215;BME280;16252;49.816;7.964;2022-07-23T07:32:01;100156.03;;;27.63;46.56
29215;BME280;16252;49.816;7.964;2022-07-23T07:34:26;100162.59;;;27.87;46.33
29215;BME280;16252;49.816;7.964;2022-07-23T07:36:52;100122.72;;;27.78;45.58
29215;BME280;16252;49.816;7.964;2022-07-23T07:39:17;100147.97;;;28.12;45.40
29215;BME280;16252;49.816;7.964;2022-07-23T07:41:42;100168.09;;;28.49;45.34
29215;BME280;16252;49.816;7.964;2022-07-23T07:44:07;100167.09;;;28.92;45.48
29215;BME280;16252;49.816;7.964;2022-07-23T07:46:33;100169.75;;;29.41;45.24
29215;BME280;16252;49.816;7.964;2022-07-23T07:48:58;100167.44;;;30.03;44.74
29215;BME280;16252;49.816;7.964;2022-07-23T07:51:23;100152.72;;;30.50;43.68
29215;BME280;16252;49.816;7.964;2022-07-23T07:53:49;100175.22;;;31.27;42.92
29215;BME280;16252;49.816;7.964;2022-07-23T07:56:14;100169.28;;;31.86;41.59
29215;BME280;16252;49.816;7.964;2022-07-23T07:58:39;100168.91;;;32.55;40.82
29215;BME280;16252;49.816;7.964;2022-07-23T08:01:04;100184.34;;;33.22;40.39
29215;BME280;16252;49.816;7.964;2022-07-23T08:03:30;100183.44;;;33.76;39.33
29215;BME280;16252;49.816;7.964;2022-07-23T08:05:55;100185.72;;;34.27;38.40
29215;BME280;16252;49.816;7.964;2022-07-23T08:08:20;100185.38;;;34.76;37.92
29215;BME280;16252;49.816;7.964;2022-07-23T08:10:45;100201.09;;;35.18;37.14
29215;BME280;16252;49.816;7.964;2022-07-23T08:13:15;100204.50;;;35.66;36.41
29215;BME280;16252;49.816;7.964;2022-07-23T08:15:41;100189.97;;;36.00;35.81
29215;BME280;16252;49.816;7.964;2022-07-23T08:18:07;100202.13;;;36.45;34.87
29215;BME280;16252;49.816;7.964;2022-07-23T08:20:32;100195.66;;;36.70;34.85
29215;BME280;16252;49.816;7.964;2022-07-23T08:23:03;100203.53;;;37.13;34.50
29215;BME280;16252;49.816;7.964;2022-07-23T08:25:34;100201.56;;;37.47;33.99
29215;BME280;16252;49.816;7.964;2022-07-23T08:28:02;100199.50;;;37.68;33.30
29215;BME280;16252;49.816;7.964;2022-07-23T08:30:28;100200.53;;;38.07;32.61
29215;BME280;16252;49.816;7.964;2022-07-23T08:37:50;100192.09;;;39.03;31.33
29215;BME280;16252;49.816;7.964;2022-07-23T08:40:16;100199.97;;;39.39;30.51
29215;BME280;16252;49.816;7.964;2022-07-23T08:42:42;100197.72;;;39.55;30.01
29215;BME280;16252;49.816;7.964;2022-07-23T08:45:08;100202.22;;;39.89;29.77
29215;BME280;16252;49.816;7.964;2022-07-23T08:47:36;100183.88;;;40.10;29.37
29215;BME280;16252;49.816;7.964;2022-07-23T08:50:02;100217.75;;;40.55;32.73
29215;BME280;16252;49.816;7.964;2022-07-23T08:52:30;100208.22;;;40.70;28.77
29215;BME280;16252;49.816;7.964;2022-07-23T08:54:56;100191.34;;;40.84;28.90
29215;BME280;16252;49.816;7.964;2022-07-23T08:57:22;100202.94;;;41.05;28.02
29215;BME280;16252;49.816;7.964;2022-07-23T08:59:47;100197.47;;;41.22;27.60
29215;BME280;16252;49.816;7.964;2022-07-23T09:02:12;100195.97;;;41.39;26.98
29215;BME280;16252;49.816;7.964;2022-07-23T09:04:37;100180.84;;;41.48;26.72
29215;BME280;16252;49.816;7.964;2022-07-23T09:07:03;100173.97;;;41.54;26.54
29215;BME280;16252;49.816;7.964;2022-07-23T09:09:28;100203.38;;;41.79;26.49
29215;BME280;16252;49.816;7.964;2022-07-23T09:12:07;100210.28;;;41.96;26.84
29215;BME280;16252;49.816;7.964;2022-07-23T09:14:37;100197.44;;;42.04;26.13
29215;BME280;16252;49.816;7.964;2022-07-23T09:17:14;100208.09;;;42.24;26.32
29215;BME280;16252;49.816;7.964;2022-07-23T09:19:41;100194.94;;;42.02;24.72
29215;BME280;16252;49.816;7.964;2022-07-23T09:27:57;100206.97;;;41.71;25.40
29215;BME280;16252;49.816;7.964;2022-07-23T09:30:26;100193.22;;;41.70;25.47
29215;BME280;16252;49.816;7.964;2022-07-23T09:35:51;100197.31;;;42.26;25.43
29215;BME280;16252;49.816;7.964;2022-07-23T09:38:18;100201.09;;;42.44;24.46
29215;BME280;16252;49.816;7.964;2022-07-23T09:40:45;100205.44;;;42.76;23.91
29215;BME280;16252;49.816;7.964;2022-07-23T09:43:11;100197.91;;;43.03;22.93
29215;BME280;16252;49.816;7.964;2022-07-23T09:45:36;100201.22;;;43.31;22.96
29215;BME280;16252;49.816;7.964;2022-07-23T09:48:14;100197.91;;;43.64;23.59
29215;BME280;16252;49.816;7.964;2022-07-23T09:50:44;100200.88;;;43.76;22.62
29215;BME280;16252;49.816;7.964;2022-07-23T09:53:10;100204.59;;;43.98;21.68
29215;BME280;16252;49.816;7.964;2022-07-23T09:55:48;100188.13;;;44.17;21.28
29215;BME280;16252;49.816;7.964;2022-07-23T09:58:14;100181.56;;;44.43;20.88
29215;BME280;16252;49.816;7.964;2022-07-23T10:00:40;100183.38;;;44.68;20.79
29215;BME280;16252;49.816;7.964;2022-07-23T10:03:06;100215.38;;;45.02;20.85
29215;BME280;16252;49.816;7.964;2022-07-23T10:05:32;100203.00;;;45.15;20.59
29215;BME280;16252;49.816;7.964;2022-07-23T10:08:01;100204.50;;;45.34;20.37
29215;BME280;16252;49.816;7.964;2022-07-23T10:10:26;100197.25;;;45.45;19.83
29215;BME280;16252;49.816;7.964;2022-07-23T10:12:56;100199.38;;;45.69;19.65
29215;BME280;16252;49.816;7.964;2022-07-23T10:15:41;100205.28;;;45.76;19.53
29215;BME280;16252;49.816;7.964;2022-07-23T10:18:10;100222.00;;;45.81;19.13
29215;BME280;16252;49.816;7.964;2022-07-23T10:20:35;100209.84;;;45.69;18.87
29215;BME280;16252;49.816;7.964;2022-07-23T10:23:19;100220.56;;;45.75;19.64
29215;BME280;16252;49.816;7.964;2022-07-23T10:26:11;100219.25;;;45.73;20.18
29215;BME280;16252;49.816;7.964;2022-07-23T10:28:49;100198.16;;;45.37;18.63
29215;BME280;16252;49.816;7.964;2022-07-23T10:34:15;100217.16;;;44.56;19.03
29215;BME280;16252;49.816;7.964;2022-07-23T10:36:49;100192.38;;;43.85;19.30
29215;BME280;16252;49.816;7.964;2022-07-23T10:39:30;100213.00;;;43.50;19.85
29215;BME280;16252;49.816;7.964;2022-07-23T10:42:15;100209.50;;;43.19;20.10
29215;BME280;16252;49.816;7.964;2022-07-23T10:44:46;100204.50;;;43.07;19.82
29215;BME280;16252;49.816;7.964;2022-07-23T10:47:12;100201.72;;;43.16;19.65
29215;BME280;16252;49.816;7.964;2022-07-23T10:49:46;100202.06;;;43.40;20.11
29215;BME280;16252;49.816;7.964;2022-07-23T10:57:15;100183.06;;;44.02;19.36
29215;BME280;16252;49.816;7.964;2022-07-23T11:00:09;100188.53;;;43.98;20.18
29215;BME280;16252;49.816;7.964;2022-07-23T11:02:36;100187.63;;;43.59;18.81
29215;BME280;16252;49.816;7.964;2022-07-23T11:05:05;100195.41;;;43.27;19.16
29215;BME280;16252;49.816;7.964;2022-07-23T11:07:32;100156.09;;;42.53;19.32
29215;BME280;16252;49.816;7.964;2022-07-23T11:09:57;100191.09;;;42.29;19.62
29215;BME280;16252;49.816;7.964;2022-07-23T11:15:01;100175.75;;;41.50;20.51
29215;BME280;16252;49.816;7.964;2022-07-23T11:17:27;100165.75;;;40.99;20.41
29215;BME280;16252;49.816;7.964;2022-07-23T11:25:10;100157.69;;;40.01;21.07
29215;BME280;16252;49.816;7.964;2022-07-23T11:27:39;100180.53;;;39.94;21.33
29215;BME280;16252;49.816;7.964;2022-07-23T11:30:07;100179.44;;;39.76;21.25
29215;BME280;16252;49.816;7.964;2022-07-23T11:32:35;100181.38;;;39.62;21.39
29215;BME280;16252;49.816;7.964;2022-07-23T11:35:18;100163.09;;;39.51;21.64
29215;BME280;16252;49.816;7.964;2022-07-23T11:37:45;100163.72;;;39.29;21.71
29215;BME280;16252;49.816;7.964;2022-07-23T11:40:13;100158.06;;;39.15;21.67
29215;BME280;16252;49.816;7.964;2022-07-23T11:42:40;100150.66;;;39.05;21.47
29215;BME280;16252;49.816;7.964;2022-07-23T11:45:15;100154.66;;;38.99;21.71
29215;BME280;16252;49.816;7.964;2022-07-23T11:47:41;100153.97;;;38.88;21.78
29215;BME280;16252;49.816;7.964;2022-07-23T11:50:06;100152.97;;;38.79;22.00
29215;BME280;16252;49.816;7.964;2022-07-23T11:52:32;100152.28;;;38.68;22.09
29215;BME280;16252;49.816;7.964;2022-07-23T11:55:03;100150.09;;;38.65;21.88
29215;BME280;16252;49.816;7.964;2022-07-23T11:57:35;100157.34;;;38.66;22.27
29215;BME280;16252;49.816;7.964;2022-07-23T12:02:35;100116.28;;;38.43;22.32
29215;BME280;16252;49.816;7.964;2022-07-23T12:05:00;100135.94;;;38.56;22.18
29215;BME280;16252;49.816;7.964;2022-07-23T12:07:37;100133.28;;;38.46;22.48
29215;BME280;16252;49.816;7.964;2022-07-23T12:10:21;100146.63;;;38.54;22.28
29215;BME280;16252;49.816;7.964;2022-07-23T12:12:55;100147.81;;;38.48;22.59
29215;BME280;16252;49.816;7.964;2022-07-23T12:15:41;100127.81;;;38.36;22.13
29215;BME280;16252;49.816;7.964;2022-07-23T12:18:09;100133.47;;;38.31;22.41
29215;BME280;16252;49.816;7.964;2022-07-23T12:20:46;100119.06;;;38.24;22.68
29215;BME280;16252;49.816;7.964;2022-07-23T12:23:14;100128.00;;;38.21;22.88
29215;BME280;16252;49.816;7.964;2022-07-23T12:25:42;100111.97;;;38.07;22.49
29215;BME280;16252;49.816;7.964;2022-07-23T12:30:44;100150.41;;;38.15;22.45
29215;BME280;16252;49.816;7.964;2022-07-23T12:33:12;100139.00;;;38.36;22.74
29215;BME280;16252;49.816;7.964;2022-07-23T12:35:44;100141.00;;;38.11;22.76
29215;BME280;16252;49.816;7.964;2022-07-23T12:38:12;100136.38;;;37.97;22.70
29215;BME280;16252;49.816;7.964;2022-07-23T12:43:10;100128.41;;;37.85;22.71
29215;BME280;16252;49.816;7.964;2022-07-23T12:51:22;100130.47;;;37.74;22.65
29215;BME280;16252;49.816;7.964;2022-07-23T12:54:14;100144.88;;;37.86;22.75
29215;BME280;16252;49.816;7.964;2022-07-23T12:56:44;100146.63;;;37.77;22.82
29215;BME280;16252;49.816;7.964;2022-07-23T12:59:10;100143.34;;;37.99;22.92
29215;BME280;16252;49.816;7.964;2022-07-23T13:01:41;100112.69;;;37.65;22.83
29215;BME280;16252;49.816;7.964;2022-07-23T13:06:41;100131.50;;;37.54;22.82
29215;BME280;16252;49.816;7.964;2022-07-23T13:09:10;100147.72;;;37.47;22.87
29215;BME280;16252;49.816;7.964;2022-07-23T13:11:36;100135.28;;;37.34;22.93
29215;BME280;16252;49.816;7.964;2022-07-23T13:14:02;100118.66;;;37.19;22.82
29215;BME280;16252;49.816;7.964;2022-07-23T13:16:28;100141.25;;;37.22;23.10
29215;BME280;16252;49.816;7.964;2022-07-23T13:18:54;100125.75;;;37.06;22.91
29215;BME280;16252;49.816;7.964;2022-07-23T13:21:21;100138.56;;;37.07;23.23
29215;BME280;16252;49.816;7.964;2022-07-23T13:23:46;100127.00;;;36.84;22.76
29215;BME280;16252;49.816;7.964;2022-07-23T13:26:12;100127.59;;;36.76;23.40
29215;BME280;16252;49.816;7.964;2022-07-23T13:28:37;100132.66;;;36.64;23.21
29215;BME280;16252;49.816;7.964;2022-07-23T13:31:02;100134.66;;;36.58;23.44
29215;BME280;16252;49.816;7.964;2022-07-23T13:33:28;100132.75;;;36.43;23.47
29215;BME280;16252;49.816;7.964;2022-07-23T13:35:54;100118.91;;;36.23;23.58
29215;BME280;16252;49.816;7.964;2022-07-23T13:38:20;100123.97;;;36.06;23.69
29215;BME280;16252;49.816;7.964;2022-07-23T13:40:48;100120.41;;;35.90;23.77